sensor_id;sensor_type;location;lat;lon;timestamp;P1;durP1;ratioP1;P2;durP2;ratioP2
55292;SDS011;41157;53.560;10.098;2023-01-16T00:02:25;5.80;;;2.90;;
55292;SDS011;41157;53.560;10.098;2023-01-16T00:04:52;4.97;;;3.10;;
55292;SDS011;41157;53.560;10.098;2023-01-16T00:07:19;7.30;;;2.70;;
55292;SDS011;41157;53.560;10.098;2023-01-16T00:09:46;4.97;;;2.97;;
55292;SDS011;41157;53.560;10.098;2023-01-16T00:12:14;5.63;;;3.10;;
55292;SDS011;41157;53.560;10.098;2023-01-16T00:14:41;8.17;;;3.30;;
55292;SDS011;41157;53.560;10.098;2023-01-16T00:17:08;7.13;;;3.50;;
55292;SDS011;41157;53.560;10.098;2023-01-16T00:19:35;5.00;;;2.80;;
55292;SDS011;41157;53.560;10.098;2023-01-16T00:22:02;9.30;;;5.63;;
55292;SDS011;41157;53.560;10.098;2023-01-16T00:24:29;13.03;;;5.40;;
55292;SDS011;41157;53.560;10.098;2023-01-16T00:26:56;5.63;;;3.37;;
55292;SDS011;41157;53.560;10.098;2023-01-16T00:29:24;5.10;;;3.10;;
55292;SDS011;41157;53.560;10.098;2023-01-16T00:31:51;6.70;;;3.53;;
55292;SDS011;41157;53.560;10.098;2023-01-16T00:34:18;6.90;;;3.40;;
55292;SDS011;41157;53.560;10.098;2023-01-16T00:36:45;6.43;;;3.10;;
55292;SDS011;41157;53.560;10.098;2023-01-16T00:39:12;5.90;;;2.90;;
55292;SDS011;41157;53.560;10.098;2023-01-16T00:41:39;4.43;;;2.90;;
55292;SDS011;41157;53.560;10.098;2023-01-16T00:44:06;6.37;;;3.30;;
55292;SDS011;41157;53.560;10.098;2023-01-16T00:46:35;5.67;;;2.87;;
55292;SDS011;41157;53.560;10.098;2023-01-16T00:49:02;6.23;;;2.70;;
55292;SDS011;41157;53.560;10.098;2023-01-16T00:51:29;6.77;;;2.70;;
55292;SDS011;41157;53.560;10.098;2023-01-16T00:53:56;7.17;;;3.00;;
55292;SDS011;41157;53.560;10.098;2023-01-16T00:56:23;7.80;;;2.80;;
55292;SDS011;41157;53.560;10.098;2023-01-16T00:58:50;4.73;;;2.30;;
55292;SDS011;41157;53.560;10.098;2023-01-16T01:01:17;5.27;;;2.50;;
55292;SDS011;41157;53.560;10.098;2023-01-16T01:03:45;6.03;;;2.43;;
55292;SDS011;41157;53.560;10.098;2023-01-16T01:06:12;7.53;;;2.77;;
55292;SDS011;41157;53.560;10.098;2023-01-16T01:08:39;5.37;;;2.23;;
55292;SDS011;41157;53.560;10.098;2023-01-16T01:11:07;7.30;;;2.53;;
55292;SDS011;41157;53.560;10.098;2023-01-16T01:13:34;5.07;;;2.53;;
55292;SDS011;41157;53.560;10.098;2023-01-16T01:16:02;5.83;;;2.37;;
55292;SDS011;41157;53.560;10.098;2023-01-16T01:18:29;5.23;;;2.53;;
55292;SDS011;41157;53.560;10.098;2023-01-16T01:20:57;5.07;;;2.30;;
55292;SDS011;41157;53.560;10.098;2023-01-16T01:23:24;7.37;;;2.47;;
55292;SDS011;41157;53.560;10.098;2023-01-16T01:25:51;3.47;;;2.20;;
55292;SDS011;41157;53.560;10.098;2023-01-16T01:28:18;4.63;;;2.00;;
55292;SDS011;41157;53.560;10.098;2023-01-16T01:30:45;5.73;;;2.00;;
55292;SDS011;41157;53.560;10.098;2023-01-16T01:33:12;5.57;;;2.20;;
55292;SDS011;41157;53.560;10.098;2023-01-16T01:35:40;4.87;;;2.10;;
55292;SDS011;41157;53.560;10.098;2023-01-16T01:38:08;6.30;;;2.20;;
55292;SDS011;41157;53.560;10.098;2023-01-16T01:40:35;4.57;;;1.90;;
55292;SDS011;41157;53.560;10.098;2023-01-16T01:43:02;3.37;;;1.80;;
55292;SDS011;41157;53.560;10.098;2023-01-16T01:45:30;4.03;;;1.87;;
55292;SDS011;41157;53.560;10.098;2023-01-16T01:47:59;4.10;;;1.93;;
55292;SDS011;41157;53.560;10.098;2023-01-16T01:50:30;3.60;;;1.60;;
55292;SDS011;41157;53.560;10.098;2023-01-16T01:53:01;2.47;;;1.70;;
55292;SDS011;41157;53.560;10.098;2023-01-16T01:55:31;4.60;;;2.00;;
55292;SDS011;41157;53.560;10.098;2023-01-16T01:57:59;7.43;;;1.83;;
55292;SDS011;41157;53.560;10.098;2023-01-16T02:00:27;4.50;;;1.77;;
55292;SDS011;41157;53.560;10.098;2023-01-16T02:02:55;8.03;;;1.73;;
55292;SDS011;41157;53.560;10.098;2023-01-16T02:05:24;4.13;;;1.80;;
55292;SDS011;41157;53.560;10.098;2023-01-16T02:07:52;4.37;;;1.73;;
55292;SDS011;41157;53.560;10.098;2023-01-16T02:10:21;2.90;;;1.60;;
55292;SDS011;41157;53.560;10.098;2023-01-16T02:12:53;5.97;;;2.20;;
55292;SDS011;41157;53.560;10.098;2023-01-16T02:15:20;5.60;;;1.87;;
55292;SDS011;41157;53.560;10.098;2023-01-16T02:17:48;4.60;;;1.90;;
55292;SDS011;41157;53.560;10.098;2023-01-16T02:20:34;4.97;;;2.07;;
55292;SDS011;41157;53.560;10.098;2023-01-16T02:23:16;7.00;;;2.30;;
55292;SDS011;41157;53.560;10.098;2023-01-16T02:25:59;4.33;;;1.93;;
55292;SDS011;41157;53.560;10.098;2023-01-16T02:28:46;7.83;;;2.17;;
55292;SDS011;41157;53.560;10.098;2023-01-16T02:31:22;10.13;;;1.70;;
55292;SDS011;41157;53.560;10.098;2023-01-16T02:33:55;2.93;;;1.93;;
55292;SDS011;41157;53.560;10.098;2023-01-16T02:36:29;5.17;;;1.40;;
55292;SDS011;41157;53.560;10.098;2023-01-16T02:39:00;4.77;;;1.90;;
55292;SDS011;41157;53.560;10.098;2023-01-16T02:41:30;4.00;;;1.50;;
55292;SDS011;41157;53.560;10.098;2023-01-16T02:44:07;4.63;;;1.73;;
55292;SDS011;41157;53.560;10.098;2023-01-16T02:46:38;6.53;;;1.90;;
55292;SDS011;41157;53.560;10.098;2023-01-16T02:49:10;2.93;;;1.70;;
55292;SDS011;41157;53.560;10.098;2023-01-16T02:51:41;2.77;;;1.50;;
55292;SDS011;41157;53.560;10.098;2023-01-16T02:54:10;6.63;;;1.63;;
55292;SDS011;41157;53.560;10.098;2023-01-16T02:56:41;5.53;;;1.60;;
55292;SDS011;41157;53.560;10.098;2023-01-16T02:59:11;6.33;;;1.70;;
55292;SDS011;41157;53.560;10.098;2023-01-16T03:01:40;5.77;;;1.57;;
55292;SDS011;41157;53.560;10.098;2023-01-16T03:06:49;3.50;;;1.70;;
55292;SDS011;41157;53.560;10.098;2023-01-16T03:09:21;3.93;;;1.80;;
55292;SDS011;41157;53.560;10.098;2023-01-16T03:11:53;3.13;;;1.50;;
55292;SDS011;41157;53.560;10.098;2023-01-16T03:14:26;5.50;;;1.83;;
55292;SDS011;41157;53.560;10.098;2023-01-16T03:17:08;4.83;;;1.40;;
55292;SDS011;41157;53.560;10.098;2023-01-16T03:19:43;4.57;;;1.47;;
55292;SDS011;41157;53.560;10.098;2023-01-16T03:22:17;4.10;;;1.70;;
55292;SDS011;41157;53.560;10.098;2023-01-16T03:24:50;3.60;;;1.50;;
55292;SDS011;41157;53.560;10.098;2023-01-16T03:27:27;7.13;;;1.60;;
55292;SDS011;41157;53.560;10.098;2023-01-16T03:29:56;3.43;;;1.50;;
55292;SDS011;41157;53.560;10.098;2023-01-16T03:32:29;7.03;;;1.67;;
55292;SDS011;41157;53.560;10.098;2023-01-16T03:34:58;3.83;;;1.67;;
55292;SDS011;41157;53.560;10.098;2023-01-16T03:37:30;6.43;;;1.50;;
55292;SDS011;41157;53.560;10.098;2023-01-16T03:40:01;4.63;;;1.73;;
55292;SDS011;41157;53.560;10.098;2023-01-16T03:42:32;4.93;;;1.63;;
55292;SDS011;41157;53.560;10.098;2023-01-16T03:45:01;4.80;;;1.70;;
55292;SDS011;41157;53.560;10.098;2023-01-16T03:47:31;3.87;;;1.63;;
55292;SDS011;41157;53.560;10.098;2023-01-16T03:50:02;5.87;;;1.53;;
55292;SDS011;41157;53.560;10.098;2023-01-16T03:52:31;11.03;;;1.67;;
55292;SDS011;41157;53.560;10.098;2023-01-16T03:55:01;3.67;;;1.60;;
55292;SDS011;41157;53.560;10.098;2023-01-16T03:57:32;2.53;;;1.60;;
55292;SDS011;41157;53.560;10.098;2023-01-16T04:00:02;6.93;;;2.03;;
55292;SDS011;41157;53.560;10.098;2023-01-16T04:02:32;6.30;;;1.83;;
55292;SDS011;41157;53.560;10.098;2023-01-16T04:05:02;5.10;;;1.63;;
55292;SDS011;41157;53.560;10.098;2023-01-16T04:07:32;4.30;;;1.70;;
55292;SDS011;41157;53.560;10.098;2023-01-16T04:10:02;2.93;;;1.40;;
55292;SDS011;41157;53.560;10.098;2023-01-16T04:12:31;4.93;;;1.47;;
55292;SDS011;41157;53.560;10.098;2023-01-16T04:15:00;4.70;;;1.73;;
55292;SDS011;41157;53.560;10.098;2023-01-16T04:17:27;5.27;;;1.80;;
55292;SDS011;41157;53.560;10.098;2023-01-16T04:19:57;4.40;;;1.60;;
55292;SDS011;41157;53.560;10.098;2023-01-16T04:22:24;2.67;;;1.70;;
55292;SDS011;41157;53.560;10.098;2023-01-16T04:24:52;7.40;;;1.63;;
55292;SDS011;41157;53.560;10.098;2023-01-16T04:27:20;2.77;;;1.10;;
55292;SDS011;41157;53.560;10.098;2023-01-16T04:29:47;6.13;;;1.80;;
55292;SDS011;41157;53.560;10.098;2023-01-16T04:32:14;7.20;;;1.53;;
55292;SDS011;41157;53.560;10.098;2023-01-16T04:34:42;4.67;;;1.80;;
55292;SDS011;41157;53.560;10.098;2023-01-16T04:37:14;3.00;;;1.40;;
55292;SDS011;41157;53.560;10.098;2023-01-16T04:39:41;5.27;;;1.70;;
55292;SDS011;41157;53.560;10.098;2023-01-16T04:42:09;6.27;;;1.50;;
55292;SDS011;41157;53.560;10.098;2023-01-16T04:44:36;5.43;;;1.50;;
55292;SDS011;41157;53.560;10.098;2023-01-16T04:47:03;3.00;;;1.40;;
55292;SDS011;41157;53.560;10.098;2023-01-16T04:49:30;5.10;;;1.40;;
55292;SDS011;41157;53.560;10.098;2023-01-16T04:51:57;3.43;;;1.10;;
55292;SDS011;41157;53.560;10.098;2023-01-16T04:54:26;6.07;;;1.53;;
55292;SDS011;41157;53.560;10.098;2023-01-16T04:56:53;4.33;;;1.40;;
55292;SDS011;41157;53.560;10.098;2023-01-16T04:59:20;5.80;;;1.80;;
55292;SDS011;41157;53.560;10.098;2023-01-16T05:01:47;6.03;;;1.53;;
55292;SDS011;41157;53.560;10.098;2023-01-16T05:04:14;3.77;;;1.37;;
55292;SDS011;41157;53.560;10.098;2023-01-16T05:06:42;3.50;;;1.40;;
55292;SDS011;41157;53.560;10.098;2023-01-16T05:09:09;5.87;;;1.37;;
55292;SDS011;41157;53.560;10.098;2023-01-16T05:11:38;6.00;;;1.60;;
55292;SDS011;41157;53.560;10.098;2023-01-16T05:14:05;4.00;;;1.30;;
55292;SDS011;41157;53.560;10.098;2023-01-16T05:16:33;5.83;;;1.50;;
55292;SDS011;41157;53.560;10.098;2023-01-16T05:19:00;2.53;;;1.27;;
55292;SDS011;41157;53.560;10.098;2023-01-16T05:21:27;5.27;;;1.37;;
55292;SDS011;41157;53.560;10.098;2023-01-16T05:23:54;6.17;;;1.60;;
55292;SDS011;41157;53.560;10.098;2023-01-16T05:26:21;4.87;;;1.50;;
55292;SDS011;41157;53.560;10.098;2023-01-16T05:28:49;2.10;;;1.27;;
55292;SDS011;41157;53.560;10.098;2023-01-16T05:31:16;3.93;;;1.70;;
55292;SDS011;41157;53.560;10.098;2023-01-16T05:33:43;4.50;;;1.70;;
55292;SDS011;41157;53.560;10.098;2023-01-16T05:36:11;7.57;;;1.93;;
55292;SDS011;41157;53.560;10.098;2023-01-16T05:38:38;4.67;;;1.80;;
55292;SDS011;41157;53.560;10.098;2023-01-16T05:41:05;3.37;;;1.63;;
55292;SDS011;41157;53.560;10.098;2023-01-16T05:43:32;2.20;;;1.50;;
55292;SDS011;41157;53.560;10.098;2023-01-16T05:46:00;3.47;;;1.20;;
55292;SDS011;41157;53.560;10.098;2023-01-16T05:48:28;3.73;;;1.50;;
55292;SDS011;41157;53.560;10.098;2023-01-16T05:50:56;6.57;;;1.30;;
55292;SDS011;41157;53.560;10.098;2023-01-16T05:53:23;5.90;;;1.50;;
55292;SDS011;41157;53.560;10.098;2023-01-16T05:55:52;2.83;;;1.37;;
55292;SDS011;41157;53.560;10.098;2023-01-16T05:58:20;5.20;;;1.50;;
55292;SDS011;41157;53.560;10.098;2023-01-16T06:00:47;3.77;;;1.40;;
55292;SDS011;41157;53.560;10.098;2023-01-16T06:03:17;2.70;;;1.60;;
55292;SDS011;41157;53.560;10.098;2023-01-16T06:05:45;3.13;;;1.50;;
55292;SDS011;41157;53.560;10.098;2023-01-16T06:08:12;5.30;;;1.40;;
55292;SDS011;41157;53.560;10.098;2023-01-16T06:10:39;3.47;;;1.03;;
55292;SDS011;41157;53.560;10.098;2023-01-16T06:13:06;6.43;;;1.43;;
55292;SDS011;41157;53.560;10.098;2023-01-16T06:15:33;3.13;;;1.40;;
55292;SDS011;41157;53.560;10.098;2023-01-16T06:18:00;4.00;;;1.43;;
55292;SDS011;41157;53.560;10.098;2023-01-16T06:20:29;4.17;;;1.30;;
55292;SDS011;41157;53.560;10.098;2023-01-16T06:22:56;7.37;;;1.50;;
55292;SDS011;41157;53.560;10.098;2023-01-16T06:25:23;3.37;;;1.27;;
55292;SDS011;41157;53.560;10.098;2023-01-16T06:27:50;5.77;;;1.43;;
55292;SDS011;41157;53.560;10.098;2023-01-16T06:30:17;4.47;;;1.70;;
55292;SDS011;41157;53.560;10.098;2023-01-16T06:32:47;2.50;;;1.30;;
55292;SDS011;41157;53.560;10.098;2023-01-16T06:35:15;6.23;;;1.30;;
55292;SDS011;41157;53.560;10.098;2023-01-16T06:37:43;2.20;;;1.30;;
55292;SDS011;41157;53.560;10.098;2023-01-16T06:40:10;4.10;;;1.30;;
55292;SDS011;41157;53.560;10.098;2023-01-16T06:42:37;2.13;;;1.10;;
55292;SDS011;41157;53.560;10.098;2023-01-16T06:45:04;3.67;;;1.10;;
55292;SDS011;41157;53.560;10.098;2023-01-16T06:47:32;6.23;;;1.60;;
55292;SDS011;41157;53.560;10.098;2023-01-16T06:49:59;4.50;;;1.40;;
55292;SDS011;41157;53.560;10.098;2023-01-16T06:52:26;4.70;;;1.40;;
55292;SDS011;41157;53.560;10.098;2023-01-16T06:54:54;4.30;;;1.10;;
55292;SDS011;41157;53.560;10.098;2023-01-16T06:57:21;2.73;;;1.20;;
55292;SDS011;41157;53.560;10.098;2023-01-16T06:59:48;2.43;;;1.40;;
55292;SDS011;41157;53.560;10.098;2023-01-16T07:02:16;2.87;;;1.20;;
55292;SDS011;41157;53.560;10.098;2023-01-16T07:04:43;2.90;;;1.33;;
55292;SDS011;41157;53.560;10.098;2023-01-16T07:07:10;3.20;;;1.47;;
55292;SDS011;41157;53.560;10.098;2023-01-16T07:09:37;4.20;;;1.40;;
55292;SDS011;41157;53.560;10.098;2023-01-16T13:39:38;3.83;;;1.40;;
55292;SDS011;41157;53.560;10.098;2023-01-16T13:42:09;2.73;;;1.60;;
55292;SDS011;41157;53.560;10.098;2023-01-16T13:44:38;5.47;;;1.47;;
55292;SDS011;41157;53.560;10.098;2023-01-16T13:47:24;3.13;;;1.30;;
55292;SDS011;41157;53.560;10.098;2023-01-16T13:49:53;2.37;;;1.53;;
55292;SDS011;41157;53.560;10.098;2023-01-16T13:52:21;1.30;;;1.20;;
55292;SDS011;41157;53.560;10.098;2023-01-16T13:54:50;6.23;;;1.73;;
55292;SDS011;41157;53.560;10.098;2023-01-16T13:57:20;2.70;;;1.57;;
55292;SDS011;41157;53.560;10.098;2023-01-16T13:59:48;5.10;;;1.70;;
55292;SDS011;41157;53.560;10.098;2023-01-16T14:02:24;3.70;;;1.67;;
55292;SDS011;41157;53.560;10.098;2023-01-16T14:05:14;4.13;;;1.30;;
55292;SDS011;41157;53.560;10.098;2023-01-16T14:07:47;4.73;;;1.77;;
55292;SDS011;41157;53.560;10.098;2023-01-16T14:10:38;3.60;;;1.97;;
55292;SDS011;41157;53.560;10.098;2023-01-16T14:13:12;1.77;;;1.20;;
55292;SDS011;41157;53.560;10.098;2023-01-16T14:15:46;4.70;;;1.67;;
55292;SDS011;41157;53.560;10.098;2023-01-16T14:18:35;5.60;;;1.67;;
55292;SDS011;41157;53.560;10.098;2023-01-16T14:21:03;3.00;;;1.67;;
55292;SDS011;41157;53.560;10.098;2023-01-16T14:23:30;3.03;;;1.40;;
55292;SDS011;41157;53.560;10.098;2023-01-16T14:26:18;3.43;;;1.47;;
55292;SDS011;41157;53.560;10.098;2023-01-16T14:28:46;2.20;;;1.20;;
55292;SDS011;41157;53.560;10.098;2023-01-16T14:31:22;3.63;;;1.40;;
55292;SDS011;41157;53.560;10.098;2023-01-16T14:33:49;3.50;;;1.43;;
55292;SDS011;41157;53.560;10.098;2023-01-16T14:36:16;3.37;;;1.20;;
55292;SDS011;41157;53.560;10.098;2023-01-16T14:38:45;3.53;;;1.43;;
55292;SDS011;41157;53.560;10.098;2023-01-16T14:41:14;4.23;;;1.40;;
55292;SDS011;41157;53.560;10.098;2023-01-16T14:44:12;2.80;;;1.57;;
55292;SDS011;41157;53.560;10.098;2023-01-16T14:47:08;3.77;;;1.33;;
55292;SDS011;41157;53.560;10.098;2023-01-16T14:50:06;2.47;;;1.47;;
55292;SDS011;41157;53.560;10.098;2023-01-16T14:52:52;2.33;;;1.67;;
55292;SDS011;41157;53.560;10.098;2023-01-16T14:55:43;2.33;;;1.40;;
55292;SDS011;41157;53.560;10.098;2023-01-16T14:58:13;4.77;;;1.70;;
55292;SDS011;41157;53.560;10.098;2023-01-16T15:00:43;2.07;;;1.40;;
55292;SDS011;41157;53.560;10.098;2023-01-16T15:03:12;2.17;;;1.30;;
55292;SDS011;41157;53.560;10.098;2023-01-16T15:05:42;3.73;;;1.80;;
55292;SDS011;41157;53.560;10.098;2023-01-16T15:08:20;3.57;;;1.47;;
55292;SDS011;41157;53.560;10.098;2023-01-16T15:10:50;3.13;;;1.60;;
55292;SDS011;41157;53.560;10.098;2023-01-16T15:13:22;3.73;;;1.37;;
55292;SDS011;41157;53.560;10.098;2023-01-16T15:15:52;2.57;;;1.47;;
55292;SDS011;41157;53.560;10.098;2023-01-16T15:18:20;2.00;;;1.50;;
55292;SDS011;41157;53.560;10.098;2023-01-16T15:21:09;2.30;;;1.60;;
55292;SDS011;41157;53.560;10.098;2023-01-16T15:24:01;1.97;;;1.50;;
55292;SDS011;41157;53.560;10.098;2023-01-16T15:26:30;4.37;;;1.87;;
55292;SDS011;41157;53.560;10.098;2023-01-16T15:29:03;2.83;;;1.83;;
55292;SDS011;41157;53.560;10.098;2023-01-16T15:31:35;8.43;;;1.87;;
55292;SDS011;41157;53.560;10.098;2023-01-16T15:34:04;3.67;;;1.50;;
55292;SDS011;41157;53.560;10.098;2023-01-16T15:36:33;2.93;;;1.40;;
55292;SDS011;41157;53.560;10.098;2023-01-16T15:39:05;3.43;;;1.47;;
55292;SDS011;41157;53.560;10.098;2023-01-16T15:41:37;2.43;;;1.53;;
55292;SDS011;41157;53.560;10.098;2023-01-16T15:44:24;3.23;;;1.57;;
55292;SDS011;41157;53.560;10.098;2023-01-16T15:49:58;3.87;;;1.20;;
55292;SDS011;41157;53.560;10.098;2023-01-16T15:52:29;2.00;;;1.40;;
55292;SDS011;41157;53.560;10.098;2023-01-16T15:55:10;4.67;;;1.93;;
55292;SDS011;41157;53.560;10.098;2023-01-16T15:57:41;1.77;;;1.10;;
55292;SDS011;41157;53.560;10.098;2023-01-16T16:00:21;2.47;;;1.63;;
55292;SDS011;41157;53.560;10.098;2023-01-16T16:02:48;4.67;;;1.50;;
55292;SDS011;41157;53.560;10.098;2023-01-16T16:05:17;1.40;;;1.20;;
55292;SDS011;41157;53.560;10.098;2023-01-16T16:07:49;5.13;;;1.73;;
55292;SDS011;41157;53.560;10.098;2023-01-16T16:13:12;5.73;;;1.60;;
55292;SDS011;41157;53.560;10.098;2023-01-16T16:15:52;3.57;;;1.63;;
55292;SDS011;41157;53.560;10.098;2023-01-16T16:18:37;1.77;;;1.43;;
55292;SDS011;41157;53.560;10.098;2023-01-16T16:21:05;2.40;;;1.40;;
55292;SDS011;41157;53.560;10.098;2023-01-16T16:23:33;6.10;;;2.57;;
55292;SDS011;41157;53.560;10.098;2023-01-16T16:26:01;1.60;;;1.50;;
55292;SDS011;41157;53.560;10.098;2023-01-16T16:28:33;4.57;;;1.90;;
55292;SDS011;41157;53.560;10.098;2023-01-16T16:31:05;3.07;;;1.70;;
55292;SDS011;41157;53.560;10.098;2023-01-16T16:33:32;3.40;;;1.40;;
55292;SDS011;41157;53.560;10.098;2023-01-16T16:36:02;2.03;;;1.27;;
55292;SDS011;41157;53.560;10.098;2023-01-16T16:38:40;3.63;;;1.50;;
55292;SDS011;41157;53.560;10.098;2023-01-16T16:41:36;3.60;;;1.63;;
55292;SDS011;41157;53.560;10.098;2023-01-16T16:44:31;3.10;;;1.77;;
55292;SDS011;41157;53.560;10.098;2023-01-16T16:46:59;3.77;;;1.80;;
55292;SDS011;41157;53.560;10.098;2023-01-16T16:49:27;3.23;;;1.47;;
55292;SDS011;41157;53.560;10.098;2023-01-16T16:51:57;2.87;;;1.70;;
55292;SDS011;41157;53.560;10.098;2023-01-16T16:54:45;5.47;;;1.80;;
55292;SDS011;41157;53.560;10.098;2023-01-16T16:57:17;3.57;;;1.60;;
55292;SDS011;41157;53.560;10.098;2023-01-16T16:59:45;2.83;;;1.83;;
55292;SDS011;41157;53.560;10.098;2023-01-16T17:02:13;3.50;;;1.40;;
55292;SDS011;41157;53.560;10.098;2023-01-16T17:04:40;2.80;;;1.73;;
55292;SDS011;41157;53.560;10.098;2023-01-16T17:07:07;2.83;;;1.60;;
55292;SDS011;41157;53.560;10.098;2023-01-16T17:09:34;3.10;;;1.60;;
55292;SDS011;41157;53.560;10.098;2023-01-16T17:12:12;2.87;;;1.53;;
55292;SDS011;41157;53.560;10.098;2023-01-16T17:14:39;2.47;;;1.57;;
55292;SDS011;41157;53.560;10.098;2023-01-16T17:17:09;3.20;;;1.47;;
55292;SDS011;41157;53.560;10.098;2023-01-16T17:19:36;3.60;;;2.10;;
55292;SDS011;41157;53.560;10.098;2023-01-16T17:22:03;4.27;;;2.17;;
55292;SDS011;41157;53.560;10.098;2023-01-16T17:24:31;3.10;;;1.70;;
55292;SDS011;41157;53.560;10.098;2023-01-16T17:26:58;2.13;;;1.70;;
55292;SDS011;41157;53.560;10.098;2023-01-16T17:29:27;5.07;;;2.10;;
55292;SDS011;41157;53.560;10.098;2023-01-16T17:31:54;6.13;;;2.17;;
55292;SDS011;41157;53.560;10.098;2023-01-16T17:34:22;5.37;;;1.90;;
55292;SDS011;41157;53.560;10.098;2023-01-16T17:36:50;4.00;;;2.57;;
55292;SDS011;41157;53.560;10.098;2023-01-16T17:39:19;6.73;;;2.10;;
55292;SDS011;41157;53.560;10.098;2023-01-16T17:41:46;6.97;;;2.10;;
55292;SDS011;41157;53.560;10.098;2023-01-16T17:44:32;3.00;;;2.03;;
55292;SDS011;41157;53.560;10.098;2023-01-16T17:47:16;3.47;;;1.90;;
55292;SDS011;41157;53.560;10.098;2023-01-16T17:49:43;4.30;;;1.77;;
55292;SDS011;41157;53.560;10.098;2023-01-16T17:52:28;3.47;;;1.60;;
55292;SDS011;41157;53.560;10.098;2023-01-16T17:55:01;6.90;;;1.80;;
55292;SDS011;41157;53.560;10.098;2023-01-16T17:57:46;2.00;;;1.43;;
55292;SDS011;41157;53.560;10.098;2023-01-16T18:00:15;2.57;;;1.97;;
55292;SDS011;41157;53.560;10.098;2023-01-16T18:02:44;3.33;;;1.77;;
55292;SDS011;41157;53.560;10.098;2023-01-16T18:05:12;6.07;;;2.00;;
55292;SDS011;41157;53.560;10.098;2023-01-16T18:07:39;2.57;;;1.67;;
55292;SDS011;41157;53.560;10.098;2023-01-16T18:10:07;3.70;;;1.60;;
55292;SDS011;41157;53.560;10.098;2023-01-16T18:12:34;2.53;;;1.80;;
55292;SDS011;41157;53.560;10.098;2023-01-16T18:15:34;3.07;;;1.80;;
55292;SDS011;41157;53.560;10.098;2023-01-16T18:18:19;3.33;;;1.57;;
55292;SDS011;41157;53.560;10.098;2023-01-16T18:20:46;6.33;;;1.83;;
55292;SDS011;41157;53.560;10.098;2023-01-16T18:23:33;2.83;;;1.80;;
55292;SDS011;41157;53.560;10.098;2023-01-16T18:26:00;4.57;;;1.63;;
55292;SDS011;41157;53.560;10.098;2023-01-16T18:28:27;4.57;;;1.80;;
55292;SDS011;41157;53.560;10.098;2023-01-16T18:30:56;3.43;;;1.50;;
55292;SDS011;41157;53.560;10.098;2023-01-16T18:33:23;2.43;;;1.60;;
55292;SDS011;41157;53.560;10.098;2023-01-16T18:35:50;1.97;;;1.63;;
55292;SDS011;41157;53.560;10.098;2023-01-16T18:38:17;2.53;;;1.60;;
55292;SDS011;41157;53.560;10.098;2023-01-16T18:41:01;3.97;;;1.80;;
55292;SDS011;41157;53.560;10.098;2023-01-16T18:43:46;3.27;;;1.53;;
55292;SDS011;41157;53.560;10.098;2023-01-16T18:46:32;2.60;;;1.60;;
55292;SDS011;41157;53.560;10.098;2023-01-16T18:49:17;3.20;;;1.30;;
55292;SDS011;41157;53.560;10.098;2023-01-16T18:52:08;3.13;;;1.60;;
55292;SDS011;41157;53.560;10.098;2023-01-16T18:54:58;2.20;;;1.77;;
55292;SDS011;41157;53.560;10.098;2023-01-16T18:57:43;1.67;;;1.40;;
55292;SDS011;41157;53.560;10.098;2023-01-16T19:00:30;2.80;;;1.50;;
55292;SDS011;41157;53.560;10.098;2023-01-16T19:03:22;7.00;;;1.60;;
55292;SDS011;41157;53.560;10.098;2023-01-16T19:05:49;4.30;;;1.83;;
55292;SDS011;41157;53.560;10.098;2023-01-16T19:08:17;3.40;;;1.83;;
55292;SDS011;41157;53.560;10.098;2023-01-16T19:10:48;2.07;;;1.47;;
55292;SDS011;41157;53.560;10.098;2023-01-16T19:13:15;1.67;;;1.50;;
55292;SDS011;41157;53.560;10.098;2023-01-16T19:15:43;2.43;;;1.50;;
55292;SDS011;41157;53.560;10.098;2023-01-16T19:18:28;2.47;;;1.70;;
55292;SDS011;41157;53.560;10.098;2023-01-16T19:20:55;1.80;;;1.70;;
55292;SDS011;41157;53.560;10.098;2023-01-16T19:23:22;3.17;;;1.40;;
55292;SDS011;41157;53.560;10.098;2023-01-16T19:25:49;2.30;;;1.63;;
55292;SDS011;41157;53.560;10.098;2023-01-16T19:28:16;3.17;;;1.73;;
55292;SDS011;41157;53.560;10.098;2023-01-16T19:30:45;3.80;;;1.60;;
55292;SDS011;41157;53.560;10.098;2023-01-16T19:33:12;4.17;;;1.90;;
55292;SDS011;41157;53.560;10.098;2023-01-16T19:35:43;3.63;;;2.07;;
55292;SDS011;41157;53.560;10.098;2023-01-16T19:38:10;2.57;;;1.70;;
55292;SDS011;41157;53.560;10.098;2023-01-16T19:40:37;5.33;;;1.53;;
55292;SDS011;41157;53.560;10.098;2023-01-16T19:43:04;2.50;;;1.60;;
55292;SDS011;41157;53.560;10.098;2023-01-16T19:45:49;4.53;;;1.70;;
55292;SDS011;41157;53.560;10.098;2023-01-16T19:48:48;1.53;;;1.20;;
55292;SDS011;41157;53.560;10.098;2023-01-16T19:51:16;2.77;;;1.57;;
55292;SDS011;41157;53.560;10.098;2023-01-16T19:53:43;2.43;;;1.47;;
55292;SDS011;41157;53.560;10.098;2023-01-16T19:56:10;2.20;;;1.60;;
55292;SDS011;41157;53.560;10.098;2023-01-16T19:58:37;1.67;;;1.20;;
55292;SDS011;41157;53.560;10.098;2023-01-16T20:01:10;3.17;;;1.57;;
55292;SDS011;41157;53.560;10.098;2023-01-16T20:03:37;1.77;;;1.60;;
55292;SDS011;41157;53.560;10.098;2023-01-16T20:06:05;2.60;;;1.67;;
55292;SDS011;41157;53.560;10.098;2023-01-16T20:08:33;3.57;;;1.43;;
55292;SDS011;41157;53.560;10.098;2023-01-16T20:11:00;3.53;;;1.83;;
55292;SDS011;41157;53.560;10.098;2023-01-16T20:13:27;2.30;;;1.60;;
55292;SDS011;41157;53.560;10.098;2023-01-16T20:15:54;3.43;;;1.60;;
55292;SDS011;41157;53.560;10.098;2023-01-16T20:18:22;3.53;;;1.67;;
55292;SDS011;41157;53.560;10.098;2023-01-16T20:20:50;2.70;;;1.47;;
55292;SDS011;41157;53.560;10.098;2023-01-16T20:23:17;1.30;;;1.20;;
55292;SDS011;41157;53.560;10.098;2023-01-16T20:25:46;2.40;;;1.30;;
55292;SDS011;41157;53.560;10.098;2023-01-16T20:28:13;3.37;;;1.60;;
55292;SDS011;41157;53.560;10.098;2023-01-16T20:30:40;1.53;;;1.30;;
55292;SDS011;41157;53.560;10.098;2023-01-16T20:33:10;2.70;;;1.67;;
55292;SDS011;41157;53.560;10.098;2023-01-16T20:35:37;1.87;;;1.33;;
55292;SDS011;41157;53.560;10.098;2023-01-16T20:38:04;1.50;;;1.40;;
55292;SDS011;41157;53.560;10.098;2023-01-16T20:40:31;1.73;;;1.40;;
55292;SDS011;41157;53.560;10.098;2023-01-16T20:43:00;2.70;;;1.50;;
55292;SDS011;41157;53.560;10.098;2023-01-16T20:45:44;4.33;;;1.70;;
55292;SDS011;41157;53.560;10.098;2023-01-16T20:48:20;3.17;;;1.50;;
55292;SDS011;41157;53.560;10.098;2023-01-16T20:50:50;2.73;;;1.50;;
55292;SDS011;41157;53.560;10.098;2023-01-16T20:53:17;3.77;;;1.67;;
55292;SDS011;41157;53.560;10.098;2023-01-16T20:55:44;2.43;;;1.60;;
55292;SDS011;41157;53.560;10.098;2023-01-16T20:58:16;1.93;;;1.60;;
55292;SDS011;41157;53.560;10.098;2023-01-16T21:00:44;3.43;;;1.67;;
55292;SDS011;41157;53.560;10.098;2023-01-16T21:03:11;4.23;;;2.07;;
55292;SDS011;41157;53.560;10.098;2023-01-16T21:05:38;4.03;;;1.80;;
55292;SDS011;41157;53.560;10.098;2023-01-16T21:08:06;1.70;;;1.60;;
55292;SDS011;41157;53.560;10.098;2023-01-16T21:10:47;1.83;;;1.30;;
55292;SDS011;41157;53.560;10.098;2023-01-16T21:13:46;4.47;;;1.77;;
55292;SDS011;41157;53.560;10.098;2023-01-16T21:16:32;3.53;;;1.40;;
55292;SDS011;41157;53.560;10.098;2023-01-16T21:22:17;1.70;;;1.40;;
55292;SDS011;41157;53.560;10.098;2023-01-16T21:24:45;3.97;;;1.70;;
55292;SDS011;41157;53.560;10.098;2023-01-16T21:27:12;1.70;;;1.33;;
55292;SDS011;41157;53.560;10.098;2023-01-16T21:29:40;4.13;;;1.50;;
55292;SDS011;41157;53.560;10.098;2023-01-16T21:32:07;1.83;;;1.50;;
55292;SDS011;41157;53.560;10.098;2023-01-16T21:34:35;3.80;;;1.90;;
55292;SDS011;41157;53.560;10.098;2023-01-16T21:37:03;2.70;;;1.70;;